Terminal Aerodrome Forecast
Issued by NWS Amarillo, TX

Current Version | Previous Version | Text Only | Print | Product List | Glossary On
Versions: 1 2 3 4 5 6 7 8 9 10 11 12 13 14 15 16 17 18
401
FTUS44 KAMA 290535
TAFGUY
TAF
KGUY 290535Z 2906/3006 02018G28KT P6SM SHRA BKN005 OVC040
      TEMPO 2906/2910 5SM -TSRA BR OVC020CB
     FM291300 33022G32KT 3SM -SN OVC004
     FM291800 35028G38KT 2SM -SN OVC004=

USA.gov is the U.S. government's official web portal to all federal, state and local government web resources and services.